Nearby METAR Reports

(scroll for additional cities)

KPSP - Palm Springs, California, USA
Distance from station: WNW 7mi, 11km
Updated: Sun, 18-Feb-2018 2:53pm PST
Clear
Clear
 Wind from varies
Wind: varies 5 mph , 7 km/h
Temperature: 75°F , 24°C
Dew Point: 30°F , -1°C
Humidity: 19%
Barometer: 29.78 inHg , 1008.5 hPa
Clouds: Clear
Visibility: 10 miles , 16 km
2018/02/18 22:53 KPSP 182253Z VRB04KT 10SM CLR 24/M01 A2978 RMK AO2 SLP084 T02391006 $
KTRM - Thermal/Palm Spg, California, USA
Distance from station: SE 16mi, 26km
Updated: Sun, 18-Feb-2018 2:52pm PST
Clear
Clear
 Wind from E
Wind: E 6 mph , 9 km/h
Temperature: 79°F , 26°C
Dew Point: 30°F , -1°C
Humidity: 17%
Barometer: 29.75 inHg , 1007.5 hPa
Clouds: Clear
Visibility: 10 miles , 16 km
2018/02/18 22:52 KTRM 182252Z AUTO 10005KT 10SM CLR 26/M01 A2975 RMK AO2 SLP075 T02561011 $
 
KNXP - Twentynine Palms, California, USA
Distance from station: NNE 37mi, 60km
Updated: Sun, 18-Feb-2018 2:56pm PST
Clear
Clear
 Wind from SW
Wind: SW 23 mph , 37 km/h, Gust: 31 mph , 50 km/h
Temperature: 70°F , 21°C
Dew Point: 30°F , -1°C
Humidity: 23%
Barometer: 29.81 inHg , 1009.5 hPa
Clouds: Clear
Visibility: 10 miles , 16 km
2018/02/18 22:56 KNXP 182256Z AUTO 22020G27KT 10SM CLR 21/M01 A2981 RMK AO2 PK WND 22030/2243 SLP071 T02061011
KL35 - Big Bear City, California, USA
Distance from station: NW 43mi, 69km
Updated: Sun, 18-Feb-2018 3:15pm PST

 Wind from WSW
Wind: WSW 13 mph , 20 km/h, Gust: 20 mph , 31 km/h
Temperature: 45°F , 7°C
Wind Chill: 39°F , 4°C
Dew Point: 23°F , -5°C
Humidity: 42%
Barometer: 29.89 inHg , 1012.2 hPa
Visibility: 10 miles , 16 km
2018/02/18 23:15 KL35 182315Z AUTO 24011G17KT 224V284 10SM 07/M05 A2989 RMK AO2
 
KF70 - Murrieta/Temecula, California, USA
Distance from station: WSW 45mi, 73km
Updated: Sun, 18-Feb-2018 3:15pm PST
Clear
Clear
 Wind from SW
Wind: SW 14 mph , 22 km/h, Gust: 17 mph , 28 km/h
Temperature: 63°F , 17°C
Dew Point: 36°F , 2°C
Humidity: 37%
Barometer: 29.90 inHg , 1012.5 hPa
Clouds: Clear
Visibility: 10 miles , 16 km
2018/02/18 23:15 KF70 182315Z AUTO 22012G15KT 10SM CLR 17/02 A2990 RMK AO1
KRIV - Riverside/March, California, USA
Distance from station: W 51mi, 82km
Updated: Sun, 18-Feb-2018 2:58pm PST
Mostly Cloudy
Mostly Cloudy
 Wind from W
Wind: W 5 mph , 7 km/h, Gust: 20 mph , 31 km/h
Temperature: 66°F , 19°C
Dew Point: 39°F , 4°C
Humidity: 37%
Barometer: 29.87 inHg , 1011.5 hPa
Clouds: Mostly Cloudy
Visibility: 10 miles , 16 km
Cloud details: Mostly Cloudy 6000 ft
2018/02/18 22:58 KRIV 182258Z 28004G17KT 10SM BKN060 19/04 A2987 RMK AO2A SLP113 T01850039 COR 2305
 
KSBD - San Bernardino, California, USA
Distance from station: WNW 54mi, 86km
Updated: Sun, 18-Feb-2018 2:50pm PST
Few Clouds
Few Clouds
 Wind from WSW
Wind: WSW 9 mph , 15 km/h
Temperature: 68°F , 20°C
Dew Point: 37°F , 3°C
Humidity: 33%
Barometer: 29.88 inHg , 1011.9 hPa
Clouds: Few Clouds
Visibility: 10 miles , 16 km
Cloud details: Few Clouds 5000 ft
2018/02/18 22:50 KSBD 182250Z 24008KT 10SM FEW050 20/03 A2988
KRNM - Ramona, California, USA
Distance from station: SSW 60mi, 96km
Updated: Sun, 18-Feb-2018 2:53pm PST
Clear
Clear
 Wind from SSW
Wind: SSW 15 mph , 24 km/h, Gust: 20 mph , 31 km/h
Temperature: 64°F , 18°C
Dew Point: 43°F , 6°C
Humidity: 46%
Barometer: 29.91 inHg , 1012.9 hPa
Clouds: Clear
Visibility: 10 miles , 16 km
2018/02/18 22:53 KRNM 182253Z 21013G17KT 10SM CLR 18/06 A2991 RMK AO2 SLP127 T01780061
 
KRAL - Riverside, California, USA
Distance from station: W 62mi, 100km
Updated: Sun, 18-Feb-2018 2:53pm PST
Clear
Clear
 Wind from W
Wind: W 13 mph , 20 km/h, Gust: 22 mph , 35 km/h
Temperature: 68°F , 20°C
Dew Point: 36°F , 2°C
Humidity: 30%
Barometer: 29.87 inHg , 1011.5 hPa
Clouds: Clear
Visibility: 10 miles , 16 km
2018/02/18 22:53 KRAL 182253Z 28011G19KT 10SM CLR 20/02 A2987 RMK AO2 SLP103 T02000017
KOKB - Oceanside, California, USA
Distance from station: SW 68mi, 109km
Updated: Sun, 18-Feb-2018 2:52pm PST
Clear
Clear
 Wind from WSW
Wind: WSW 10 mph , 17 km/h
Temperature: 64°F , 18°C
Dew Point: 52°F , 11°C
Humidity: 64%
Barometer: 29.91 inHg , 1012.9 hPa
Clouds: Clear
Visibility: 10 miles , 16 km
2018/02/18 22:52 KOKB 182252Z AUTO 24009KT 10SM CLR 18/11 A2991 RMK AO2 SLP129 T01780111
 
KONT - Ontario, California, USA
Distance from station: WNW 71mi, 114km
Updated: Sun, 18-Feb-2018 2:53pm PST
Few Clouds
Few Clouds
 Wind from SW
Wind: SW 16 mph , 26 km/h, Gust: 23 mph , 37 km/h
Temperature: 66°F , 19°C
Dew Point: 34°F , 1°C
Humidity: 30%
Barometer: 29.88 inHg , 1011.9 hPa
Clouds: Few Clouds
Visibility: 10 miles , 16 km
Cloud details: Few Clouds 8000 ft
Few Clouds 25000 ft
2018/02/18 22:53 KONT 182253Z 23014G20KT 10SM FEW080 FEW250 19/01 A2988 RMK AO2 SLP114 T01890006
KNJK - El Centro Naf, California, USA
Distance from station: SSE 78mi, 126km
Updated: Sun, 18-Feb-2018 2:56pm PST
Light rain, Clear
Light rain, Clear
 Wind from WSW
Wind: WSW 24 mph , 39 km/h
Temperature: 79°F , 26°C
Dew Point: 36°F , 2°C
Humidity: 21%
Barometer: 29.80 inHg , 1009.1 hPa
Summary: Light Rain
Clouds: Clear
Visibility: 10 miles , 16 km
2018/02/18 22:56 KNJK 182256Z AUTO 24021KT 10SM -RA CLR 26/02 A2980 RMK AO2 PK WND 26029/2231 SLP106 P0000 T02610022
 
KSEE - San Diego/Santee, California, USA
Distance from station: SSW 74mi, 120km
Updated: Sun, 18-Feb-2018 2:47pm PST
Partly Cloudy
Partly Cloudy
 Wind from SW
Wind: SW 7 mph , 11 km/h
Temperature: 68°F , 20°C
Dew Point: 39°F , 4°C
Humidity: 35%
Barometer: 29.92 inHg , 1013.2 hPa
Clouds: Partly Cloudy
Visibility: 10 miles , 16 km
Cloud details: Partly Cloudy 5500 ft
2018/02/18 22:47 KSEE 182247Z 23006KT 10SM SCT055 20/04 A2992
KCNO - Chino, California, USA
Distance from station: W 72mi, 116km
Updated: Sun, 18-Feb-2018 2:53pm PST
Few Clouds
Few Clouds
 Wind from W
Wind: W 16 mph , 26 km/h
Temperature: 70°F , 21°C
Dew Point: 28°F , -2°C
Humidity: 21%
Barometer: 29.89 inHg , 1012.2 hPa
Clouds: Few Clouds
Visibility: 10 miles , 16 km
Cloud details: Few Clouds 8000 ft
2018/02/18 22:53 KCNO 182253Z 27014KT 10SM FEW080 21/M02 A2989 RMK AO2 SLP118 T02061022 $